YET weather

Public forecast

Using degrees Celsius for public forecast. Weather courtesy of forecast.io.

Current aviation weather report (METAR) for Edson Airport

Retrieved 2020/08/09 20:00 UTC (39 minutes ago):

CYET 092000Z AUTO 27014G22KT 9SM CLR 19/02 A3004 RMK SLP180 DENSITY ALT 4100FT

Closest aviation forecast (TAF) to Edson Airport

Closest forecast is Whitecourt Airport, 41.6 nm (77.0 km) NE. Retrieved 2020/08/09 19:00 UTC (2 hours ago):

TAF CYZU 091838Z 0919/0923 29020G30KT P6SM FEW050 BECMG 0920/0922 30012KT RMK NXT FCST WILL BE ISSUED AT 101415Z